Share

Alton, KS

Gorham Tele-Com (KKSPARAD2) Elev 1695 ft | 39.12 °N, 98.92 °W | Change Station

Current weather conditions updated 8 seconds ago

Clear
Clear
67.7 °F
Feels Like 67.7 °F
N
3.1
Wind Variable Wind from SE
Gusts 5.8 mph
Sunrise 6:52 AM
Sunset 8:17 PM
Moon Waning Gibbous

Tomorrow is forecast to be Cooler than today. Showers and thunderstorms late.

Pressure 29.93 in
Visibility 10.0 miles
Clouds Clear
Dew Point 51 °F
Humidity 55%
Rainfall 0.00 in
Snow Depth Not available.
UV 0 out of 16
Pollen 11.50 out of 12
Air Quality Not available.
Flu Activity No Activity
METAR KRSL 200353Z AUTO 17016KT 10SM CLR 19/10 A2996 RMK AO2 SLP134 T01940100 TSNO

More Conditions Fewer Conditions

Pressure 29.93 in
Visibility 10.0 miles
Clouds Clear
Dew Point 51 °F
Humidity 55%
Rainfall 0.00 in
Snow Depth Not available.
UV 0 out of 16
Pollen 11.50 out of 12
Air Quality Not available.
Flu Activity No Activity
METAR KRSL 200353Z AUTO 17016KT 10SM CLR 19/10 A2996 RMK AO2 SLP134 T01940100 TSNO

More Conditions Fewer Conditions

10-Day Weather Forecast

Almanac

Astronomy

Apr. 19, 2014 Rise Set
Actual Time 6:52 AM CDT 8:17 PM CDT
Civil Twilight 6:24 AM CDT 8:45 PM CDT
Nautical Twilight 5:51 AM CDT 9:19 PM CDT
Astronomical Twilight 5:15 AM CDT 9:55 PM CDT
Moon 12:02 AM CDT (4/19) 10:13 AM CDT (4/19)
Length of Visible Light 14h 21m
Length of Day
13h 24m
Tomorrow will be 2m 25s longer.
Waning Gibbous, 74% of the Moon is Illuminated
Apr 20
Waning Gibbous
Apr 22
Last Quarter
Apr 29
New
May 6
First Quarter
May 14
Full

Today's Extremes

State Highs State Lows

Community

  • Cherry Blossoms
    Cherry Blossoms
  • White-Crowned Sparrow
    White-Crowned Sparrow
  • New Day
    New Day
  • Happy Easter!
    Happy Easter!
  • poppy bloom near Mazar-e-Sharif
    poppy bloom near Mazar-e-Sharif

WunderPhotos

Upload Photos

1,703,079 photos uploaded!

WunderBlogs® & News

Nearby

Snow Depth

Station Depth Elevation
No new snow has been reported.

Coastal Water Temperatures

Place Temperature
No Stations Reporting

Earthquake Activity

City Distance Mag. Time & Date
No recent earthquake activity has been reported nearby.
Minimum magnitude displayed is 2.5.

Nearby Weather Stations

Station Location Temp. Dew Point Humidity Wind Precip. Elev Updated Type
RAWS KIRWIN KS, Kirwin, KS 69 °F 50 °F 51% SSE  at  6 mph 0.00 in / hr 1747 ft 9:56 PM CDT MADIS
Gorham Tele-Com, Paradise, KS 67.7 °F 51 °F 55% SE  at  3.1 mph 0.00 in / hr 1695 ft 11:19 PM CDT Rapid Fire

Show More Stations Show Fewer Stations

What do you think?

We're not finished. Please let us know what you like, what you don't like, and what you are still missing.